createdAt,value
2019-05-15T02:46:11.884Z,23.12
2019-05-15T03:14:39.990Z,22.96
2019-05-15T03:15:40.962Z,22.98
2019-05-15T03:16:41.509Z,22.96
2019-05-15T03:17:42.490Z,22.93
2019-05-15T03:22:19.371Z,22.93
2019-05-15T15:09:58.312Z,23.73
2019-05-15T15:10:59.668Z,23.73
2019-05-15T15:12:00.809Z,23.68
2019-05-15T15:13:01.421Z,23.73
2019-05-15T15:14:02.039Z,23.71
2019-05-15T15:15:02.621Z,23.80
2019-05-15T15:16:03.236Z,23.71
2019-05-15T15:17:03.850Z,23.81
2019-05-15T15:18:04.424Z,23.78
2019-05-15T15:19:05.000Z,23.80
2019-05-15T15:20:05.731Z,23.68
2019-05-15T15:21:08.461Z,23.74
2019-05-15T15:22:08.730Z,23.68
2019-05-15T15:23:08.758Z,23.76
2019-05-15T15:24:09.301Z,23.68
2019-05-15T15:25:10.012Z,23.76
2019-05-15T15:26:10.519Z,23.71
2019-05-15T15:27:11.130Z,23.69
2019-05-15T15:28:11.712Z,23.69
2019-05-15T15:29:12.476Z,23.68
2019-05-15T15:30:15.724Z,23.59
2019-05-15T15:31:13.691Z,23.61
2019-05-15T15:32:14.266Z,23.66
2019-05-15T15:33:14.862Z,23.63
2019-05-15T15:34:15.461Z,23.61
2019-05-15T15:35:16.062Z,23.61
2019-05-15T15:36:16.653Z,23.48
2019-05-15T15:37:17.373Z,23.50
2019-05-15T15:38:27.111Z,23.50
2019-05-15T15:39:19.514Z,23.50
2019-05-15T15:40:20.089Z,23.48
2019-05-15T15:41:20.707Z,23.44
2019-05-15T15:42:21.280Z,23.41
2019-05-15T15:43:21.854Z,23.40
2019-05-15T15:44:22.436Z,23.31
2019-05-15T15:45:23.043Z,23.31
2019-05-15T15:46:23.621Z,23.24
2019-05-15T15:47:24.242Z,23.25
2019-05-15T15:48:24.818Z,23.23
2019-05-15T15:49:27.758Z,23.24
2019-05-15T15:50:26.005Z,23.23
2019-05-15T15:51:28.493Z,23.20
2019-05-15T15:52:28.991Z,23.20
2019-05-15T15:53:29.656Z,23.09
2019-05-15T15:54:30.237Z,23.20
2019-05-15T15:55:30.844Z,23.18
2019-05-15T15:56:31.418Z,23.18
2019-05-15T15:57:31.996Z,23.10
2019-05-15T15:58:32.609Z,23.12
2019-05-15T15:59:33.224Z,23.20
2019-05-15T16:00:33.804Z,23.08
2019-05-15T16:01:34.414Z,23.05
2019-05-15T16:02:34.994Z,23.18
2019-05-15T16:03:37.856Z,23.12
2019-05-15T16:04:39.211Z,23.03
2019-05-15T16:05:38.548Z,23.09
2019-05-15T16:06:39.206Z,23.05
2019-05-15T16:07:39.826Z,23.03
2019-05-15T16:08:52.216Z,23.05
2019-05-15T16:09:41.970Z,23.03
2019-05-15T16:10:42.647Z,23.02
2019-05-15T16:11:43.219Z,23.12
2019-05-15T16:12:43.793Z,23.12
2019-05-15T16:20:57.868Z,23.03
2019-05-15T16:21:59.518Z,22.99
2019-05-15T16:22:59.151Z,22.93
2019-05-15T18:57:10.516Z,22.10
2019-05-15T18:58:11.091Z,21.98
2019-05-15T19:46:01.645Z,21.79
2019-05-15T19:47:02.223Z,21.77
2019-05-15T21:35:09.064Z,21.61
2019-05-15T21:37:23.805Z,21.62
2019-05-15T21:40:55.225Z,21.60
2019-05-15T21:41:58.160Z,21.60
2019-05-15T21:42:58.198Z,21.60
2019-05-15T21:43:59.309Z,21.62
2019-05-15T21:44:59.949Z,21.55
2019-05-15T21:46:00.557Z,21.57
2019-05-15T21:47:01.129Z,21.58
2019-05-15T21:48:01.701Z,21.60
2019-05-15T21:49:02.273Z,21.54
2019-05-15T21:50:02.844Z,21.58
2019-05-15T21:51:03.416Z,21.55
2019-05-15T21:52:03.989Z,21.55
2019-05-15T21:53:04.559Z,21.54
2019-05-15T21:54:05.313Z,21.52
2019-05-15T21:55:05.882Z,21.52
2019-05-15T21:56:08.176Z,21.54
2019-05-15T21:57:29.077Z,21.50
2019-05-15T22:00:42.052Z,21.45
2019-05-15T22:01:42.882Z,21.42
2019-05-15T22:02:43.487Z,21.48
2019-05-15T22:21:13.608Z,21.40
2019-05-15T23:07:34.105Z,21.27
2019-05-15T23:08:34.712Z,21.20
2019-05-15T23:09:35.327Z,21.20
2019-05-15T23:10:37.980Z,21.21
2019-05-15T23:11:39.073Z,21.21
2019-05-15T23:12:38.421Z,21.21
2019-05-15T23:16:10.459Z,21.25
2019-05-15T23:18:28.108Z,21.14
2019-05-15T23:19:28.945Z,21.14
2019-05-15T23:20:29.937Z,21.15
2019-05-15T23:22:46.983Z,21.12
2019-05-15T23:23:48.686Z,21.15
2019-05-15T23:26:03.789Z,21.12
2019-05-15T23:27:04.564Z,21.09
2019-05-15T23:29:20.601Z,21.17
2019-05-15T23:30:21.176Z,21.11
2019-05-15T23:31:21.748Z,21.14
